Time;durP1;ratioP1;P1;durP2;ratioP2;P2;SDS_P1;SDS_P2;PMS_P1;PMS_P2;Temp;Humidity;BMP_temperature;BMP_pressure;BME280_temperature;BME280_humidity;BME280_pressure;Samples;Min_cycle;Max_cycle;Signal;HPM_P1;HPM_P2
2021/06/09 00:00:29;;;;;;;22.30;12.20;;;;;;;;;;5036957;28;20381;-73
2021/06/09 00:02:58;;;;;;;21.67;12.90;;;16.70;1.00;;;;;;5036661;28;20634;-73
2021/06/09 00:05:24;;;;;;;24.67;13.53;;;16.70;1.00;;;;;;5053698;28;20414;-73
2021/06/09 00:07:50;;;;;;;26.20;13.50;;;16.70;1.00;;;;;;5044659;28;20457;-74
2021/06/09 00:10:16;;;;;;;21.07;12.17;;;16.70;1.00;;;;;;5049334;28;20425;-74
2021/06/09 00:12:42;;;;;;;21.80;13.13;;;16.70;1.00;;;;;;5056666;28;20164;-74
2021/06/09 00:15:11;;;;;;;29.43;14.50;;;16.70;1.00;;;;;;5051218;28;20483;-74
2021/06/09 00:17:46;;;;;;;24.30;13.63;;;16.70;1.00;;;;;;5056819;28;20377;-74
2021/06/09 00:20:22;;;;;;;22.60;13.10;;;16.80;1.00;;;;;;5056129;28;20400;-75
2021/06/09 00:22:49;;;;;;;26.40;14.27;;;16.80;1.00;;;;;;5055410;28;20388;-74
2021/06/09 00:25:16;;;;;;;23.30;13.50;;;16.70;1.00;;;;;;5056326;28;20919;-74
2021/06/09 00:27:43;;;;;;;24.83;13.00;;;16.70;1.00;;;;;;5053113;28;20482;-74
2021/06/09 00:30:13;;;;;;;24.47;13.60;;;16.80;1.00;;;;;;5036356;28;20446;-74
2021/06/09 00:32:47;;;;;;;34.80;14.27;;;16.80;1.00;;;;;;5036287;28;20450;-74
2021/06/09 00:35:13;;;;;;;30.57;14.17;;;16.80;1.00;;;;;;5036199;28;20403;-74
2021/06/09 00:37:47;;;;;;;21.80;13.10;;;16.80;1.00;;;;;;5036346;28;20432;-73
2021/06/09 00:40:13;;;;;;;21.53;13.23;;;16.80;1.00;;;;;;5036102;28;20432;-73
2021/06/09 00:42:39;;;;;;;20.97;12.87;;;16.90;1.00;;;;;;5035966;28;20862;-73
2021/06/09 00:45:07;;;;;;;26.43;13.27;;;16.90;1.00;;;;;;5036338;28;20390;-73
2021/06/09 00:47:33;;;;;;;27.37;13.90;;;17.00;1.00;;;;;;5035802;28;20413;-73
2021/06/09 00:49:59;;;;;;;23.07;13.97;;;;;;;;;;5035913;28;20418;-73
2021/06/09 00:52:30;;;;;;;22.70;13.60;;;17.10;1.00;;;;;;5035967;28;20366;-73
2021/06/09 00:54:56;;;;;;;24.13;12.33;;;17.10;1.00;;;;;;5037870;28;20389;-73
2021/06/09 00:57:24;;;;;;;24.57;13.77;;;17.20;1.00;;;;;;5035271;28;20844;-73
2021/06/09 00:59:59;;;;;;;25.97;13.77;;;;;;;;;;5037367;28;20162;-73
2021/06/09 01:02:27;;;;;;;20.50;12.80;;;17.30;1.00;;;;;;5055427;28;20809;-73
2021/06/09 01:04:58;;;;;;;19.60;12.00;;;17.30;1.00;;;;;;5035722;28;20478;-73
2021/06/09 01:07:24;;;;;;;20.50;13.70;;;;;;;;;;5035701;28;20735;-73
2021/06/09 01:09:50;;;;;;;20.97;13.20;;;17.40;1.00;;;;;;5035959;28;20422;-73
2021/06/09 01:12:16;;;;;;;21.83;13.27;;;17.40;1.00;;;;;;5046425;28;20411;-73
2021/06/09 01:14:42;;;;;;;19.27;13.07;;;17.40;1.00;;;;;;5055189;28;20410;-73
2021/06/09 01:17:08;;;;;;;26.70;13.00;;;17.40;1.00;;;;;;5055347;28;20396;-73
2021/06/09 01:19:34;;;;;;;18.73;11.80;;;;;;;;;;5055440;28;20157;-73
2021/06/09 01:22:00;;;;;;;20.57;12.80;;;;;;;;;;5055135;28;20167;-73
2021/06/09 01:24:28;;;;;;;21.73;13.00;;;17.50;1.00;;;;;;5055153;28;20396;-73
2021/06/09 01:26:54;;;;;;;22.33;12.23;;;;;;;;;;5041758;28;20789;-73
2021/06/09 01:29:20;;;;;;;18.57;11.37;;;;;;;;;;5053782;28;20732;-73
2021/06/09 01:31:46;;;;;;;23.70;11.03;;;17.60;1.00;;;;;;5055125;28;20932;-73
2021/06/09 01:34:17;;;;;;;21.23;12.43;;;17.60;1.00;;;;;;5055141;28;20371;-73
2021/06/09 01:36:42;;;;;;;19.60;11.30;;;17.60;1.00;;;;;;5053199;28;20381;-73
2021/06/09 01:39:15;;;;;;;18.97;10.77;;;17.60;1.00;;;;;;5055038;28;20404;-73
2021/06/09 01:41:49;;;;;;;21.37;10.70;;;17.60;1.00;;;;;;5042871;28;20255;-73
2021/06/09 01:44:15;;;;;;;16.90;11.30;;;17.60;1.00;;;;;;5045350;28;20395;-73
2021/06/09 01:46:42;;;;;;;21.43;11.07;;;17.50;1.00;;;;;;5051173;28;20523;-73
2021/06/09 01:49:09;;;;;;;17.67;11.13;;;17.60;1.00;;;;;;5034847;28;20396;-73
2021/06/09 01:51:35;;;;;;;16.60;11.33;;;17.50;1.00;;;;;;5033152;28;20438;-73
2021/06/09 01:54:03;;;;;;;21.70;11.80;;;17.50;1.00;;;;;;5035145;28;20416;-74
2021/06/09 01:56:28;;;;;;;19.33;11.17;;;17.50;1.00;;;;;;5034190;28;20723;-74
2021/06/09 01:58:54;;;;;;;16.30;10.93;;;;;;;;;;5052314;28;20449;-74
2021/06/09 02:01:23;;;;;;;16.77;11.70;;;17.50;1.00;;;;;;5054134;28;20161;-74
2021/06/09 02:03:49;;;;;;;26.20;10.13;;;;;;;;;;5035875;28;20427;-74
2021/06/09 02:06:15;;;;;;;14.40;10.30;;;17.60;1.00;;;;;;5034643;28;20400;-74
2021/06/09 02:08:41;;;;;;;17.27;11.60;;;17.60;1.00;;;;;;5034513;28;20390;-73
2021/06/09 02:11:07;;;;;;;17.47;11.10;;;17.60;1.00;;;;;;5039705;28;20526;-74
2021/06/09 02:13:35;;;;;;;20.60;11.70;;;17.60;1.00;;;;;;5054041;28;20824;-74
2021/06/09 02:16:01;;;;;;;19.70;10.70;;;17.60;1.00;;;;;;5069953;28;20184;-74
2021/06/09 02:18:28;;;;;;;19.80;11.20;;;;;;;;;;5054269;28;21032;-74
2021/06/09 02:20:56;;;;;;;18.50;11.80;;;17.60;1.00;;;;;;5054346;28;20399;-74
2021/06/09 02:23:32;;;;;;;21.93;11.90;;;17.60;1.00;;;;;;5054527;28;20388;-74
2021/06/09 02:26:00;;;;;;;18.90;10.63;;;17.60;1.00;;;;;;5039807;28;20882;-73
2021/06/09 02:28:29;;;;;;;17.70;10.67;;;17.60;1.00;;;;;;5049583;28;20394;-73
2021/06/09 02:30:55;;;;;;;30.63;11.10;;;17.60;1.00;;;;;;5038420;28;20446;-73
2021/06/09 02:33:23;;;;;;;25.43;10.60;;;17.60;1.00;;;;;;5053867;28;20543;-73
2021/06/09 02:35:50;;;;;;;15.60;10.50;;;17.60;1.00;;;;;;5036034;28;20427;-73
2021/06/09 02:38:18;;;;;;;18.10;11.40;;;17.60;1.00;;;;;;5053877;28;20382;-73
2021/06/09 02:40:51;;;;;;;23.83;10.80;;;17.60;1.00;;;;;;5053909;28;20442;-74
2021/06/09 02:43:18;;;;;;;16.10;10.70;;;17.60;1.00;;;;;;5053877;28;20377;-74
2021/06/09 02:45:48;;;;;;;23.03;10.97;;;17.50;1.00;;;;;;5053825;28;20403;-74
2021/06/09 02:48:19;;;;;;;15.20;10.47;;;17.50;1.00;;;;;;5053763;28;20395;-74
2021/06/09 02:50:45;;;;;;;22.80;10.63;;;17.50;1.00;;;;;;5053659;28;20545;-74
2021/06/09 02:53:16;;;;;;;19.77;10.70;;;17.50;1.00;;;;;;5053859;28;20549;-74
2021/06/09 02:55:58;;;;;;;17.40;10.80;;;17.40;1.00;;;;;;5053913;28;20423;-73
2021/06/09 02:58:51;;;;;;;15.77;10.90;;;17.40;1.00;;;;;;5049137;28;20837;-73
2021/06/09 03:01:29;;;;;;;23.00;11.30;;;;;;;;;;5051958;28;20427;-73
2021/06/09 03:04:18;;;;;;;22.30;11.63;;;17.30;1.00;;;;;;5051260;28;20537;-73
2021/06/09 03:06:44;;;;;;;15.27;10.63;;;;;;;;;;5043688;28;20404;-73
2021/06/09 03:09:23;;;;;;;16.80;11.30;;;17.30;1.00;;;;;;5038834;28;20423;-74
2021/06/09 03:12:08;;;;;;;24.63;11.43;;;17.20;1.00;;;;;;5033516;28;20456;-73
2021/06/09 03:15:11;;;;;;;17.93;11.30;;;17.20;1.00;;;;;;5052557;28;20434;-73
2021/06/09 03:17:49;;;;;;;17.23;11.30;;;17.10;1.00;;;;;;5053253;28;20518;-73
2021/06/09 03:20:41;;;;;;;22.33;11.87;;;17.10;1.00;;;;;;5053541;28;20416;-73
2021/06/09 03:23:34;;;;;;;17.13;11.30;;;17.00;1.00;;;;;;5057563;28;20546;-73
2021/06/09 03:26:23;;;;;;;29.50;11.70;;;17.00;1.00;;;;;;5057873;28;20797;-73
2021/06/09 03:29:01;;;;;;;18.67;11.30;;;16.90;1.00;;;;;;5057319;28;20404;-73
2021/06/09 03:31:32;;;;;;;15.93;10.33;;;16.90;1.00;;;;;;5057269;28;20452;-73
2021/06/09 03:33:59;;;;;;;21.20;11.97;;;16.90;1.00;;;;;;5057319;28;20492;-73
2021/06/09 03:36:29;;;;;;;18.80;12.17;;;16.80;1.00;;;;;;5056636;28;20419;-73
2021/06/09 03:39:03;;;;;;;19.00;11.90;;;16.80;1.00;;;;;;5056930;28;20907;-73
2021/06/09 03:41:46;;;;;;;19.03;11.60;;;16.80;1.00;;;;;;5057252;28;20391;-74
2021/06/09 03:44:44;;;;;;;20.67;12.07;;;16.80;1.00;;;;;;5057267;28;20418;-74
2021/06/09 03:47:19;;;;;;;22.13;12.50;;;16.70;1.00;;;;;;5057384;28;20940;-74
2021/06/09 03:49:48;;;;;;;23.23;11.80;;;16.70;1.00;;;;;;5056921;28;20392;-74
2021/06/09 03:52:15;;;;;;;16.77;10.83;;;16.70;1.00;;;;;;5056830;28;20479;-74
2021/06/09 03:54:55;;;;;;;18.27;11.33;;;16.70;1.00;;;;;;5057459;28;20431;-74
2021/06/09 03:57:32;;;;;;;22.10;11.47;;;16.70;1.00;;;;;;5053323;28;20411;-74
2021/06/09 03:59:59;;;;;;;22.53;11.90;;;16.70;1.00;;;;;;5036928;28;20399;-76
2021/06/09 04:02:27;;;;;;;22.77;11.33;;;16.70;1.00;;;;;;5051718;28;20389;-75
2021/06/09 04:04:55;;;;;;;19.40;11.73;;;16.70;1.00;;;;;;5056594;28;20418;-75
2021/06/09 04:07:27;;;;;;;18.20;11.60;;;16.70;1.00;;;;;;5056941;28;20737;-75
2021/06/09 04:10:02;;;;;;;25.80;12.00;;;16.70;1.00;;;;;;5057267;28;20399;-76
2021/06/09 04:12:41;;;;;;;24.27;11.60;;;16.70;1.00;;;;;;5051036;28;20449;-81
2021/06/09 04:18:31;;;;;;;20.03;11.80;;;16.80;1.00;;;;;;5050444;28;20895;-81
2021/06/09 04:24:19;;;;;;;19.40;10.87;;;16.80;1.00;;;;;;5056347;28;20373;-83
2021/06/09 04:30:07;;;;;;;22.83;11.83;;;16.80;1.00;;;;;;5052065;28;20461;-82
2021/06/09 04:35:54;;;;;;;16.53;10.60;;;16.90;1.00;;;;;;5036268;28;20421;-82
2021/06/09 04:45:04;;;;;;;23.43;11.00;;;17.00;1.00;;;;;;5035932;28;20445;-82
2021/06/09 04:50:52;;;;;;;18.47;11.17;;;17.20;1.00;;;;;;5040563;28;21055;-82
2021/06/09 04:56:39;;;;;;;24.80;11.87;;;17.30;1.00;;;;;;5056110;28;20199;-82
2021/06/09 05:05:51;;;;;;;17.90;10.77;;;;;;;;;;5055608;28;20380;-82
2021/06/09 05:11:50;;;;;;;16.47;10.47;;;;;;;;;;5055594;28;20440;-75
2021/06/09 05:14:22;;;;;;;16.67;10.40;;;18.50;1.00;;;;;;5035210;28;20413;-76
2021/06/09 05:16:49;;;;;;;21.43;10.67;;;18.70;1.00;;;;;;5037981;28;20516;-76
2021/06/09 05:19:53;;;;;;;16.23;9.70;;;18.80;1.00;;;;;;5034832;28;20388;-76
2021/06/09 05:22:33;;;;;;;40.00;12.00;;;19.00;1.00;;;;;;5042892;28;20441;-77
2021/06/09 05:25:04;;;;;;;48.97;12.77;;;19.20;1.00;;;;;;5041075;28;20415;-76
2021/06/09 05:27:42;;;;;;;19.13;9.73;;;19.30;1.00;;;;;;5049537;28;20426;-82
2021/06/09 05:30:35;;;;;;;14.23;9.80;;;19.40;1.00;;;;;;5054766;28;20815;-82
2021/06/09 05:33:02;;;;;;;16.17;10.20;;;19.70;1.00;;;;;;5050292;28;20414;-82
2021/06/09 05:35:30;;;;;;;24.00;12.10;;;19.90;1.00;;;;;;5050536;28;20433;-82
2021/06/09 05:37:56;;;;;;;18.40;10.97;;;;;;;;;;5051736;28;20923;-82
2021/06/09 05:40:22;;;;;;;14.27;9.60;;;20.30;1.00;;;;;;5050849;28;20831;-82
2021/06/09 05:42:49;;;;;;;13.23;8.70;;;20.40;1.00;;;;;;5050688;28;20488;-76
2021/06/09 05:45:34;;;;;;;14.30;9.53;;;20.70;1.00;;;;;;5052889;28;20393;-76
2021/06/09 05:48:05;;;;;;;15.63;8.83;;;20.90;1.00;;;;;;5074011;28;20375;-76
2021/06/09 05:50:33;;;;;;;17.70;12.17;;;21.10;1.00;;;;;;5073802;28;20477;-76
2021/06/09 05:53:04;;;;;;;13.23;9.20;;;21.20;1.00;;;;;;5073694;28;20777;-76
2021/06/09 05:55:31;;;;;;;16.60;9.50;;;21.30;1.00;;;;;;5071142;28;20885;-76
2021/06/09 05:58:02;;;;;;;33.77;11.97;;;21.40;1.00;;;;;;5062631;28;20457;-84
2021/06/09 06:03:31;;;;;;;42.57;20.37;;;21.60;1.00;;;;;;5050091;28;20874;-84
2021/06/09 06:09:19;;;;;;;17.43;9.90;;;21.50;1.00;;;;;;5046265;28;20208;-85
2021/06/09 06:12:16;;;;;;;23.43;9.77;;;;;;;;;;5052621;28;20546;-84
2021/06/09 06:18:04;;;;;;;16.90;9.67;;;21.60;1.00;;;;;;5052734;28;20476;-85
2021/06/09 06:21:10;;;;;;;13.47;8.77;;;21.70;1.00;;;;;;5047651;28;20427;-85
2021/06/09 06:30:25;;;;;;;16.20;9.00;;;22.10;1.00;;;;;;5053763;28;20466;-78
2021/06/09 06:32:57;;;;;;;18.43;9.50;;;22.30;1.00;;;;;;5052666;28;20426;-79
2021/06/09 06:42:07;;;;;;;17.83;8.83;;;22.50;1.00;;;;;;5053750;28;20460;-85
2021/06/09 06:50:58;;;;;;;19.60;9.27;;;;;;;;;;5053878;28;20525;-85
2021/06/09 06:54:16;;;;;;;15.10;8.70;;;22.80;1.00;;;;;;5050536;28;20424;-85
2021/06/09 06:56:54;;;;;;;20.40;9.37;;;;;;;;;;5052427;28;20460;-85
2021/06/09 06:59:21;;;;;;;13.50;9.40;;;;;;;;;;5049473;28;20870;-86
2021/06/09 07:05:09;;;;;;;14.87;9.07;;;;;;;;;;5034273;28;20387;-85
2021/06/09 07:14:27;;;;;;;12.60;8.67;;;24.00;1.00;;;;;;5034021;28;20950;-86
2021/06/09 07:23:37;;;;;;;14.57;8.73;;;24.40;1.00;;;;;;5050602;28;20814;-81
2021/06/09 07:29:27;;;;;;;14.47;9.40;;;24.40;1.00;;;;;;5044732;28;20165;-79
2021/06/09 07:35:15;;;;;;;17.90;9.30;;;24.30;1.00;;;;;;5052647;28;20434;-78
2021/06/09 07:38:05;;;;;;;10.30;8.30;;;24.20;1.00;;;;;;5052977;28;20402;-78
2021/06/09 07:40:39;;;;;;;13.80;9.63;;;24.10;1.00;;;;;;5032936;28;20408;-78
2021/06/09 07:46:46;;;;;;;22.20;11.00;;;23.80;1.00;;;;;;5032564;28;20468;-78
2021/06/09 07:49:14;;;;;;;19.50;10.40;;;23.70;1.00;;;;;;5048506;28;20783;-78
2021/06/09 07:51:47;;;;;;;16.67;9.13;;;23.70;1.00;;;;;;5052814;28;20849;-78
2021/06/09 07:54:35;;;;;;;16.43;10.30;;;23.50;1.00;;;;;;5052851;28;20444;-78
2021/06/09 07:57:04;;;;;;;17.03;9.23;;;23.60;1.00;;;;;;5052461;28;20420;-77
2021/06/09 07:59:30;;;;;;;19.57;10.00;;;;;;;;;;5038991;28;20405;-75
2021/06/09 08:01:56;;;;;;;20.47;10.70;;;23.70;1.00;;;;;;5031033;28;20790;-75
2021/06/09 08:04:23;;;;;;;16.80;10.43;;;23.60;1.00;;;;;;5046943;28;20424;-75
2021/06/09 08:06:49;;;;;;;20.73;10.40;;;;;;;;;;5052980;28;20166;-75
2021/06/09 08:09:15;;;;;;;14.13;8.80;;;;;;;;;;5055918;28;20411;-75
2021/06/09 08:11:42;;;;;;;16.23;9.40;;;23.70;1.00;;;;;;5046414;28;20476;-75
2021/06/09 08:14:09;;;;;;;23.53;10.20;;;23.80;1.00;;;;;;5044343;28;20476;-75
2021/06/09 08:16:47;;;;;;;17.27;8.90;;;23.80;1.00;;;;;;5056854;28;20526;-75
2021/06/09 08:19:22;;;;;;;12.50;9.30;;;23.90;1.00;;;;;;5056648;28;20487;-75
2021/06/09 08:21:52;;;;;;;21.60;10.00;;;24.00;1.00;;;;;;5050884;28;20420;-75
2021/06/09 08:24:28;;;;;;;18.17;9.87;;;24.20;1.00;;;;;;5039566;28;20431;-75
2021/06/09 08:27:02;;;;;;;12.43;7.87;;;;;;;;;;5036580;28;20440;-75
2021/06/09 08:30:16;;;;;;;18.90;8.70;;;24.30;1.00;;;;;;5036492;28;20401;-79
2021/06/09 08:33:10;;;;;;;13.30;8.30;;;24.30;1.00;;;;;;5056490;28;20523;-79
2021/06/09 08:36:05;;;;;;;12.13;7.73;;;24.40;1.00;;;;;;5055755;28;20366;-79
2021/06/09 08:39:16;;;;;;;15.30;8.77;;;24.50;1.00;;;;;;5048682;28;20508;-79
2021/06/09 08:41:43;;;;;;;11.87;8.00;;;24.60;1.00;;;;;;5055551;28;20424;-76
2021/06/09 08:44:09;;;;;;;17.10;8.97;;;24.70;1.00;;;;;;5042671;28;20458;-75
2021/06/09 08:46:46;;;;;;;15.90;8.97;;;;;;;;;;5046362;28;20575;-75
2021/06/09 08:49:13;;;;;;;48.53;13.53;;;;;;;;;;5051838;28;20209;-75
2021/06/09 08:51:39;;;;;;;12.97;8.37;;;24.80;1.00;;;;;;5052601;28;20460;-75
2021/06/09 08:54:08;;;;;;;13.20;9.33;;;24.90;1.00;;;;;;5054995;28;20815;-75
2021/06/09 08:56:36;;;;;;;29.80;11.20;;;;;;;;;;5050937;28;20396;-75
2021/06/09 08:59:03;;;;;;;15.80;8.53;;;24.80;1.00;;;;;;5050992;28;20472;-75
2021/06/09 09:01:32;;;;;;;11.57;7.90;;;24.80;1.00;;;;;;5054416;28;20496;-75
2021/06/09 09:03:58;;;;;;;19.93;9.87;;;;;;;;;;5033686;28;20519;-75
2021/06/09 09:06:24;;;;;;;15.50;8.03;;;25.10;1.00;;;;;;5045370;28;20430;-75
2021/06/09 09:08:53;;;;;;;12.30;8.40;;;;;;;;;;5052245;28;20413;-75
2021/06/09 09:11:19;;;;;;;11.77;8.10;;;25.30;1.00;;;;;;5054426;28;20195;-75
2021/06/09 09:13:45;;;;;;;13.40;8.10;;;;;;;;;;5054786;28;20466;-76
2021/06/09 09:16:10;;;;;;;10.03;7.50;;;25.50;1.00;;;;;;5054851;28;20449;-76
2021/06/09 09:18:38;;;;;;;11.90;8.00;;;25.60;1.00;;;;;;5054059;28;20401;-76
2021/06/09 09:21:05;;;;;;;11.57;7.90;;;;;;;;;;5054186;28;20181;-76
2021/06/09 09:23:30;;;;;;;12.83;8.17;;;25.70;1.00;;;;;;5044360;28;20944;-76
2021/06/09 09:25:59;;;;;;;12.07;8.30;;;25.70;1.00;;;;;;5054108;28;20408;-76
2021/06/09 09:28:33;;;;;;;9.30;7.30;;;25.90;1.00;;;;;;5054557;28;20644;-76
2021/06/09 09:31:11;;;;;;;14.97;8.10;;;26.10;1.00;;;;;;5054021;28;20996;-76
2021/06/09 09:33:38;;;;;;;12.80;7.30;;;26.10;1.00;;;;;;5045584;28;20470;-76
2021/06/09 09:36:28;;;;;;;11.43;7.30;;;26.00;1.00;;;;;;5047804;28;20411;-76
2021/06/09 09:38:56;;;;;;;10.37;6.50;;;25.90;1.00;;;;;;5055872;28;20401;-76
2021/06/09 09:41:27;;;;;;;12.90;7.30;;;26.00;1.00;;;;;;5057385;28;20896;-76
2021/06/09 09:43:55;;;;;;;9.90;7.73;;;26.20;1.00;;;;;;5051922;28;20450;-76
2021/06/09 09:46:36;;;;;;;10.10;7.13;;;26.40;1.00;;;;;;5038009;28;20428;-76
2021/06/09 09:49:04;;;;;;;11.70;7.90;;;26.50;1.00;;;;;;5053993;28;20766;-76
2021/06/09 09:51:32;;;;;;;11.17;6.93;;;26.80;1.00;;;;;;5053739;28;20453;-76
2021/06/09 09:54:00;;;;;;;8.10;6.90;;;26.90;1.00;;;;;;5053921;28;20437;-76
2021/06/09 09:56:27;;;;;;;11.73;5.97;;;;;;;;;;5053705;28;20767;-76
2021/06/09 09:59:05;;;;;;;9.30;5.93;;;27.10;1.00;;;;;;5054089;28;20391;-75
2021/06/09 10:01:34;;;;;;;16.93;7.77;;;27.20;1.00;;;;;;5048214;28;20994;-75
2021/06/09 10:04:02;;;;;;;13.77;6.40;;;27.20;1.00;;;;;;5052762;28;20902;-75
2021/06/09 10:06:41;;;;;;;13.17;6.73;;;27.50;1.00;;;;;;5053146;28;20951;-75
2021/06/09 10:09:07;;;;;;;10.60;6.40;;;28.00;1.00;;;;;;5070092;28;20501;-75
2021/06/09 10:11:36;;;;;;;10.30;6.33;;;28.30;1.00;;;;;;5053526;28;20483;-76
2021/06/09 10:14:31;;;;;;;12.23;5.67;;;28.60;1.00;;;;;;5045081;28;21319;-76
2021/06/09 10:17:03;;;;;;;9.00;6.37;;;28.80;1.00;;;;;;5034024;28;20425;-75
2021/06/09 10:19:38;;;;;;;10.03;6.23;;;29.10;1.00;;;;;;5040600;28;20418;-79
2021/06/09 10:22:19;;;;;;;9.03;6.10;;;29.40;1.00;;;;;;5053248;28;20408;-75
2021/06/09 10:24:57;;;;;;;7.10;6.00;;;29.60;1.00;;;;;;5052594;28;20426;-76
2021/06/09 10:27:36;;;;;;;6.47;5.40;;;29.80;1.00;;;;;;5053040;28;20868;-76
2021/06/09 10:30:19;;;;;;;6.33;5.33;;;30.00;1.00;;;;;;5052915;28;20944;-76
2021/06/09 10:32:47;;;;;;;8.63;6.50;;;30.10;1.00;;;;;;5051405;28;20436;-76
2021/06/09 10:35:13;;;;;;;11.40;6.20;;;30.20;1.00;;;;;;5051255;28;20889;-76
2021/06/09 10:37:39;;;;;;;7.70;6.00;;;;;;;;;;5053092;28;20762;-76
2021/06/09 10:40:06;;;;;;;7.70;5.70;;;30.00;1.00;;;;;;5049922;28;20411;-76
2021/06/09 10:42:32;;;;;;;9.10;6.47;;;30.10;1.00;;;;;;5033844;28;20453;-76
2021/06/09 10:44:58;;;;;;;11.30;5.87;;;29.70;1.00;;;;;;5045648;28;20526;-75
2021/06/09 10:47:28;;;;;;;5.90;5.30;;;29.70;1.00;;;;;;5038536;28;20469;-75
2021/06/09 10:49:54;;;;;;;7.77;6.17;;;29.70;1.00;;;;;;5052721;28;20429;-75
2021/06/09 10:52:20;;;;;;;7.67;5.83;;;29.70;1.00;;;;;;5041829;28;20450;-74
2021/06/09 10:54:47;;;;;;;14.40;6.77;;;;;;;;;;5038456;28;20426;-76
2021/06/09 10:57:15;;;;;;;7.60;5.77;;;29.50;1.00;;;;;;5053040;28;20425;-75
2021/06/09 10:59:47;;;;;;;11.23;6.60;;;29.40;1.00;;;;;;5048217;28;20421;-76
2021/06/09 11:02:18;;;;;;;9.47;6.60;;;29.30;1.00;;;;;;5052807;28;20437;-75
2021/06/09 11:04:55;;;;;;;13.43;6.93;;;29.20;1.00;;;;;;5033601;28;20883;-75
2021/06/09 11:07:32;;;;;;;10.23;6.60;;;29.10;1.00;;;;;;5033240;28;20410;-75
2021/06/09 11:10:00;;;;;;;9.93;6.80;;;;;;;;;;5052240;28;20427;-75
2021/06/09 11:13:04;;;;;;;;;;;;;;;;;;;;;
2021/06/09 11:15:32;;;;;;;7.80;6.73;;;28.70;1.00;;;;;;5037687;28;20784;-75
2021/06/09 11:18:00;;;;;;;11.13;6.43;;;28.60;1.00;;;;;;5042481;28;20910;-75
2021/06/09 11:20:46;;;;;;;8.83;7.20;;;28.50;1.00;;;;;;5036971;28;20422;-75
2021/06/09 11:23:37;;;;;;;9.50;6.73;;;28.40;1.00;;;;;;5047774;28;20861;-75
2021/06/09 11:26:06;;;;;;;7.93;6.33;;;28.30;1.00;;;;;;5050118;28;20441;-75
2021/06/09 11:28:52;;;;;;;11.20;6.97;;;28.40;1.00;;;;;;5039936;28;20474;-74
2021/06/09 11:31:58;;;;;;;8.80;6.80;;;28.60;1.00;;;;;;5047282;28;20487;-79
2021/06/09 11:34:59;;;;;;;10.40;6.50;;;28.80;1.00;;;;;;5048692;28;20433;-80
2021/06/09 11:38:06;;;;;;;12.37;7.50;;;28.80;1.00;;;;;;5053729;28;20460;-77
2021/06/09 11:40:57;;;;;;;7.17;6.00;;;29.00;1.00;;;;;;5011445;28;20434;-77
2021/06/09 11:43:54;;;;;;;11.50;6.50;;;29.00;1.00;;;;;;5014447;28;20447;-76
2021/06/09 11:46:32;;;;;;;8.50;6.60;;;28.80;1.00;;;;;;5008705;28;20838;-78
2021/06/09 11:49:23;;;;;;;15.03;6.60;;;28.90;1.00;;;;;;5013620;28;20965;-80
2021/06/09 11:52:01;;;;;;;6.87;5.77;;;28.90;1.00;;;;;;5014601;28;20469;-80
2021/06/09 11:58:06;;;;;;;5.83;5.17;;;28.50;1.00;;;;;;5017620;28;20412;-81
2021/06/09 12:00:57;;;;;;;6.97;6.13;;;28.60;1.00;;;;;;5034413;28;20851;-80
2021/06/09 12:03:23;;;;;;;6.70;6.00;;;28.80;1.00;;;;;;5015331;28;20523;-81
2021/06/09 12:06:25;;;;;;;13.23;5.83;;;28.80;1.00;;;;;;4996583;28;20794;-80
2021/06/09 12:08:55;;;;;;;7.43;6.07;;;28.80;1.00;;;;;;5006487;28;20443;-80
2021/06/09 12:11:35;;;;;;;5.20;4.43;;;28.70;1.00;;;;;;5000865;28;20528;-81
2021/06/09 12:14:26;;;;;;;6.70;4.77;;;28.60;1.00;;;;;;5006178;28;20420;-80
2021/06/09 12:17:10;;;;;;;5.30;4.80;;;28.60;1.00;;;;;;5014478;28;20439;-80
2021/06/09 12:19:36;;;;;;;5.50;4.40;;;28.70;1.00;;;;;;5048510;28;20430;-80
2021/06/09 12:22:55;;;;;;;6.17;5.40;;;28.80;1.00;;;;;;5036571;28;20394;-81
2021/06/09 12:29:04;;;;;;;10.47;5.80;;;28.70;1.00;;;;;;4994428;28;20427;-78
2021/06/09 12:31:36;;;;;;;9.20;5.10;;;28.70;1.00;;;;;;4990115;28;21223;-76
2021/06/09 12:34:04;;;;;;;10.97;5.27;;;28.60;1.00;;;;;;4995638;28;20443;-76
2021/06/09 12:36:34;;;;;;;7.37;5.20;;;28.50;1.00;;;;;;5014297;28;20453;-81
2021/06/09 12:39:35;;;;;;;5.60;4.63;;;28.50;1.00;;;;;;4994429;28;20434;-81
2021/06/09 12:42:13;;;;;;;6.03;4.83;;;28.40;1.00;;;;;;4989737;28;20919;-80
2021/06/09 12:44:48;;;;;;;6.00;5.20;;;28.70;1.00;;;;;;4993323;28;20451;-81
2021/06/09 12:47:34;;;;;;;7.83;5.63;;;28.90;1.00;;;;;;4990815;28;20842;-81
2021/06/09 12:50:33;;;;;;;7.33;6.03;;;29.00;1.00;;;;;;4961816;28;20432;-81
2021/06/09 12:53:27;;;;;;;5.10;4.60;;;29.20;1.00;;;;;;4981769;28;20484;-77
2021/06/09 12:55:57;;;;;;;6.73;4.80;;;29.50;1.00;;;;;;4944519;29;20545;-78
2021/06/09 12:58:28;;;;;;;10.17;5.53;;;29.80;1.00;;;;;;4955087;29;20928;-77
2021/06/09 13:00:56;;;;;;;7.70;5.20;;;30.00;1.00;;;;;;4964075;28;20428;-77
2021/06/09 13:03:29;;;;;;;6.23;4.90;;;29.90;1.00;;;;;;4980438;28;20450;-77
2021/06/09 13:05:58;;;;;;;4.37;3.97;;;29.90;1.00;;;;;;4989061;28;20443;-79
2021/06/09 13:08:30;;;;;;;4.10;3.77;;;29.90;1.00;;;;;;4990567;28;20518;-78
2021/06/09 13:11:14;;;;;;;4.20;3.80;;;29.90;1.00;;;;;;4992672;28;20445;-78
2021/06/09 13:13:48;;;;;;;4.80;4.10;;;29.70;1.00;;;;;;4975764;28;20883;-78
2021/06/09 13:16:17;;;;;;;24.83;6.40;;;29.80;1.00;;;;;;4990690;28;20436;-78
2021/06/09 13:18:48;;;;;;;4.90;3.90;;;30.10;1.00;;;;;;4965217;28;20444;-77
2021/06/09 13:21:19;;;;;;;7.10;5.20;;;;;;;;;;4990479;28;20447;-77
2021/06/09 13:23:46;;;;;;;11.13;4.17;;;30.20;1.00;;;;;;4983007;28;20476;-77
2021/06/09 13:26:14;;;;;;;5.27;3.90;;;30.40;1.00;;;;;;4988064;28;20440;-77
2021/06/09 13:28:40;;;;;;;4.33;3.83;;;30.40;1.00;;;;;;4973854;28;20899;-77
2021/06/09 13:31:06;;;;;;;5.27;4.40;;;30.50;1.00;;;;;;4979109;28;20523;-77
2021/06/09 13:33:33;;;;;;;7.37;4.30;;;30.60;1.00;;;;;;5037285;28;20454;-78
2021/06/09 13:35:59;;;;;;;5.33;3.83;;;30.90;1.00;;;;;;5054270;28;20401;-77
2021/06/09 13:38:25;;;;;;;4.37;3.97;;;31.00;1.00;;;;;;5037622;28;20526;-77
2021/06/09 13:40:54;;;;;;;4.07;3.77;;;31.00;1.00;;;;;;5033961;28;20406;-78
2021/06/09 13:43:22;;;;;;;3.97;3.53;;;31.00;1.00;;;;;;5034126;28;20430;-77
2021/06/09 13:45:53;;;;;;;4.03;3.63;;;31.00;1.00;;;;;;5032081;28;20466;-77
2021/06/09 13:48:23;;;;;;;20.00;6.23;;;31.00;1.00;;;;;;5040317;28;20934;-77
2021/06/09 13:51:01;;;;;;;6.20;3.70;;;31.00;1.00;;;;;;5042538;28;20470;-77
2021/06/09 13:53:58;;;;;;;5.40;3.50;;;30.80;1.00;;;;;;5053100;28;20422;-82
2021/06/09 13:56:46;;;;;;;8.43;4.03;;;30.90;1.00;;;;;;5051696;28;20505;-82
2021/06/09 13:59:34;;;;;;;26.57;4.30;;;31.10;1.00;;;;;;5040098;28;20427;-81
2021/06/09 14:02:21;;;;;;;17.50;4.57;;;31.20;1.00;;;;;;5033578;28;20743;-82
2021/06/09 14:05:20;;;;;;;7.83;3.80;;;31.50;1.00;;;;;;5033703;28;20403;-86
2021/06/09 14:08:07;;;;;;;8.77;4.00;;;31.60;1.00;;;;;;4976178;28;20449;-86
2021/06/09 14:10:39;;;;;;;5.73;3.80;;;31.80;1.00;;;;;;5011450;28;20479;-79
2021/06/09 14:13:16;;;;;;;7.03;3.97;;;31.70;1.00;;;;;;4992923;28;20443;-80
2021/06/09 14:15:59;;;;;;;3.87;3.57;;;31.50;1.00;;;;;;4992225;28;20447;-79
2021/06/09 14:18:37;;;;;;;11.73;4.37;;;31.60;1.00;;;;;;5005909;28;20443;-79
2021/06/09 14:21:31;;;;;;;4.37;3.70;;;31.60;1.00;;;;;;5001505;28;20439;-79
2021/06/09 14:24:28;;;;;;;15.27;4.70;;;31.50;1.00;;;;;;5009366;28;20509;-78
2021/06/09 14:27:05;;;;;;;8.50;3.50;;;31.50;1.00;;;;;;5011761;28;20412;-78
2021/06/09 14:29:31;;;;;;;18.77;4.97;;;31.70;1.00;;;;;;4996035;28;20511;-77
2021/06/09 14:32:08;;;;;;;3.73;3.43;;;31.60;1.00;;;;;;4992178;28;20476;-78
2021/06/09 14:35:18;;;;;;;18.67;4.80;;;31.80;1.00;;;;;;4995299;28;20518;-77
2021/06/09 14:38:12;;;;;;;4.10;3.70;;;32.00;1.00;;;;;;5007981;28;20428;-78
2021/06/09 14:40:59;;;;;;;7.93;3.90;;;32.30;1.00;;;;;;5011481;28;20436;-78
2021/06/09 14:43:59;;;;;;;7.53;3.80;;;32.50;1.00;;;;;;5023148;28;20492;-79
2021/06/09 14:49:36;;;;;;;4.13;3.77;;;33.00;1.00;;;;;;5048025;28;20788;-79
2021/06/09 14:52:35;;;;;;;3.57;3.30;;;32.90;1.00;;;;;;5046846;28;20455;-78
2021/06/09 14:55:05;;;;;;;4.03;3.73;;;;;;;;;;5053522;28;20437;-79
2021/06/09 14:57:35;;;;;;;17.83;4.73;;;33.00;1.00;;;;;;5060577;28;20414;-79
2021/06/09 15:00:28;;;;;;;8.03;3.80;;;33.00;1.00;;;;;;5052719;28;20386;-79
2021/06/09 15:02:54;;;;;;;9.50;4.27;;;33.00;1.00;;;;;;5037671;28;20411;-76
2021/06/09 15:05:24;;;;;;;13.17;4.40;;;33.20;1.00;;;;;;5051404;28;20429;-77
2021/06/09 15:07:50;;;;;;;8.77;3.90;;;33.30;1.00;;;;;;5054689;28;20843;-77
2021/06/09 15:10:17;;;;;;;20.13;4.97;;;34.10;1.00;;;;;;5045300;28;20434;-78
2021/06/09 15:12:47;;;;;;;14.57;4.07;;;36.50;1.00;;;;;;5032447;28;20510;-78
2021/06/09 15:15:13;;;;;;;8.13;3.70;;;37.90;1.00;;;;;;5033198;28;20443;-77
2021/06/09 15:18:05;;;;;;;9.80;3.30;;;39.10;1.00;;;;;;5037173;28;20458;-80